createdAt,value
2019-05-13T00:01:14.545Z,6.6
2019-05-13T00:06:16.614Z,6.5
2019-05-13T00:11:18.834Z,6.5
2019-05-13T00:16:23.365Z,6.5
2019-05-13T00:21:23.497Z,6.4
2019-05-13T00:26:25.654Z,6.4
2019-05-13T00:31:27.935Z,6.3
2019-05-13T00:36:30.312Z,6.2
2019-05-13T00:41:33.663Z,6.2
2019-05-13T00:46:34.839Z,6.2
2019-05-13T00:51:37.255Z,6.1
2019-05-13T00:56:39.527Z,6.1
2019-05-13T01:01:44.012Z,6
2019-05-13T01:06:43.992Z,6
2019-05-13T01:11:46.509Z,5.9
2019-05-13T01:16:48.760Z,5.9
2019-05-13T01:21:50.990Z,5.9
2019-05-13T01:26:54.153Z,5.8
2019-05-13T01:31:55.724Z,5.8
2019-05-13T01:36:57.911Z,5.7
2019-05-13T01:42:00.056Z,5.6
2019-05-13T01:47:04.458Z,5.6
2019-05-13T01:52:04.770Z,5.5
2019-05-13T01:57:07.041Z,5.5
2019-05-13T02:02:09.794Z,5.4
2019-05-13T02:07:13.817Z,5.3
2019-05-13T02:12:13.851Z,5.3
2019-05-13T02:17:16.195Z,5.2
2019-05-13T02:22:18.549Z,5.2
2019-05-13T02:27:20.666Z,5.1
2019-05-13T02:32:23.596Z,5
2019-05-13T02:37:29.286Z,5
2019-05-13T02:42:27.890Z,4.9
2019-05-13T02:47:32.864Z,4.9
2019-05-13T02:52:33.486Z,4.8
2019-05-13T02:57:34.696Z,4.8
2019-05-13T03:07:47.678Z,4.7
2019-05-13T03:12:53.213Z,4.7
2019-05-13T03:17:52.475Z,4.6
2019-05-13T03:22:54.577Z,4.6
2019-05-13T03:27:57.078Z,4.6
2019-05-13T03:33:04.065Z,4.5
2019-05-13T03:38:03.357Z,4.4
2019-05-13T03:43:04.088Z,4.4
2019-05-13T03:48:05.981Z,4.4
2019-05-13T03:53:08.315Z,4.3
2019-05-13T03:58:13.049Z,4.3
2019-05-13T04:03:13.738Z,4.3
2019-05-13T04:08:15.221Z,4.2
2019-05-13T04:13:17.465Z,4.2
2019-05-13T04:18:23.037Z,4.3
2019-05-13T04:23:23.305Z,4.3
2019-05-13T04:28:24.616Z,4.3
2019-05-13T04:33:26.734Z,4.3
2019-05-13T04:38:28.962Z,4.5
2019-05-13T04:43:34.585Z,4.6
2019-05-13T04:48:34.161Z,4.8
2019-05-13T04:53:35.825Z,4.9
2019-05-13T04:58:38.045Z,5
2019-05-13T05:03:42.054Z,5
2019-05-13T05:08:47.209Z,5.2
2019-05-13T05:13:46.727Z,5.3
2019-05-13T05:18:47.248Z,5.7
2019-05-13T05:23:51.519Z,6
2019-05-13T05:28:52.024Z,6.2
2019-05-13T05:33:54.203Z,6.5
2019-05-13T05:38:56.616Z,6.7
2019-05-13T05:43:58.898Z,7
2019-05-13T05:49:02.110Z,7.3
2019-05-13T05:54:03.395Z,7.4
2019-05-13T05:59:05.803Z,7.7
2019-05-13T06:04:07.891Z,7.9
2019-05-13T06:09:12.178Z,8.1
2019-05-13T06:14:14.037Z,8.5
2019-05-13T06:19:17.772Z,8.8
2019-05-13T06:24:17.083Z,9
2019-05-13T06:29:22.064Z,9.3
2019-05-13T06:34:21.705Z,9.4
2019-05-13T06:39:24.076Z,9.7
2019-05-13T06:44:26.255Z,10.1
2019-05-13T06:49:28.573Z,10.3
2019-05-13T06:54:32.888Z,10.4
2019-05-13T06:59:33.108Z,10.6
2019-05-13T07:04:35.642Z,10.9
2019-05-13T07:09:37.730Z,11.1
2019-05-13T07:14:41.790Z,11.4
2019-05-13T07:19:42.424Z,11.6
2019-05-13T07:24:44.693Z,11.8
2019-05-13T07:29:46.914Z,11.9
2019-05-13T07:34:52.874Z,12.1
2019-05-13T07:39:53.197Z,12.5
2019-05-13T07:44:53.770Z,12.8
2019-05-13T07:49:56.144Z,12.9
2019-05-13T07:54:58.415Z,12.9
2019-05-13T08:00:04.170Z,13.1
2019-05-13T08:05:03.049Z,13.2
2019-05-13T08:10:05.274Z,13.5
2019-05-13T08:15:07.614Z,13.8
2019-05-13T08:20:11.822Z,14.1
2019-05-13T08:25:12.687Z,14.4
2019-05-13T08:30:17.905Z,14.3
2019-05-13T08:35:16.753Z,14.5
2019-05-13T08:40:20.436Z,14.6
2019-05-13T08:45:22.374Z,14.6
2019-05-13T08:50:23.666Z,14.6
2019-05-13T08:55:25.869Z,15.1
2019-05-13T09:00:28.173Z,15.5
2019-05-13T09:05:31.869Z,15.7
2019-05-13T09:10:33.072Z,15.3
2019-05-13T09:15:35.087Z,15.4
2019-05-13T09:20:37.344Z,15.5
2019-05-13T09:25:41.569Z,15.7
2019-05-13T09:30:42.482Z,16.1
2019-05-13T09:35:44.358Z,16.799999
2019-05-13T09:40:46.570Z,16.700001
2019-05-13T09:45:48.827Z,17.1
2019-05-13T09:50:51.806Z,17.1
2019-05-13T09:55:53.416Z,16.9
2019-05-13T10:00:55.712Z,17.299999
2019-05-13T10:05:57.999Z,17.5
2019-05-13T10:11:01.609Z,18.200001
2019-05-13T10:16:02.529Z,18.299999
2019-05-13T10:21:04.849Z,18.1
2019-05-13T10:26:07.229Z,17.700001
2019-05-13T10:31:11.824Z,17.9
2019-05-13T10:36:12.226Z,18
2019-05-13T10:41:14.023Z,18
2019-05-13T10:46:16.550Z,18.200001
2019-05-13T10:51:18.704Z,18.4
2019-05-13T10:56:21.172Z,18.9
2019-05-13T11:01:23.292Z,19.1
2019-05-13T11:06:27.693Z,19.299999
2019-05-13T11:11:27.980Z,19.200001
2019-05-13T11:16:30.087Z,19.299999
2019-05-13T11:21:32.574Z,19.299999
2019-05-13T11:26:36.405Z,19.5
2019-05-13T11:31:37.022Z,19.299999
2019-05-13T11:36:43.016Z,19.4
2019-05-13T11:41:42.816Z,19.799999
2019-05-13T11:46:44.008Z,19.799999
2019-05-13T11:51:46.262Z,20
2019-05-13T11:56:52.177Z,20.200001
2019-05-13T12:02:04.616Z,20.4
2019-05-13T12:07:35.225Z,20.299999
2019-05-13T12:11:55.801Z,20.5
2019-05-13T12:16:57.864Z,20.200001
2019-05-13T12:22:02.596Z,20.4
2019-05-13T12:27:03.879Z,20.6
2019-05-13T12:32:04.518Z,20.5
2019-05-13T12:37:06.906Z,20.700001
2019-05-13T12:42:09.240Z,21
2019-05-13T12:47:12.204Z,21.4
2019-05-13T12:52:14.025Z,20.9
2019-05-13T12:57:16.449Z,20.9
2019-05-13T13:02:18.286Z,20.700001
2019-05-13T13:08:37.953Z,20.799999
2019-05-13T13:12:33.455Z,21
2019-05-13T13:17:25.330Z,20.9
2019-05-13T13:22:27.572Z,20.9
2019-05-13T13:28:10.634Z,21
2019-05-13T13:32:33.114Z,20.9
2019-05-13T13:37:35.201Z,20.799999
2019-05-13T13:42:36.795Z,20.9
2019-05-13T13:47:39.074Z,20.9
2019-05-13T13:52:45.741Z,21.299999
2019-05-13T13:57:44.976Z,21.1
2019-05-13T14:02:46.153Z,21
2019-05-13T14:06:55.940Z,21
2019-05-13T14:07:48.216Z,21.200001
2019-05-13T14:12:52.505Z,20.9
2019-05-13T14:17:53.126Z,21.1
2019-05-13T14:22:58.059Z,21
2019-05-13T14:27:57.504Z,20.799999
2019-05-13T14:33:02.187Z,20.9
2019-05-13T14:38:02.582Z,20.700001
2019-05-13T14:43:04.441Z,20.700001
2019-05-13T14:48:06.556Z,20.799999
2019-05-13T14:53:08.911Z,20.6
2019-05-13T14:58:11.087Z,20.1
2019-05-13T15:03:13.620Z,20.200001
2019-05-13T15:08:15.640Z,20.1
2019-05-13T15:13:18.174Z,19.6
2019-05-13T15:18:22.229Z,19.6
2019-05-13T15:23:22.687Z,19.799999
2019-05-13T15:28:25.165Z,19.5
2019-05-13T15:33:27.158Z,19.200001
2019-05-13T15:38:31.824Z,19
2019-05-13T15:43:32.084Z,19
2019-05-13T15:48:34.197Z,18.9
2019-05-13T15:53:36.258Z,18.6
2019-05-13T15:58:40.480Z,18.1
2019-05-13T16:03:41.561Z,17.9
2019-05-13T16:08:43.492Z,17.6
2019-05-13T16:13:45.572Z,17.4
2019-05-13T16:18:47.868Z,17.299999
2019-05-13T16:23:51.953Z,17.200001
2019-05-13T16:28:52.834Z,16.799999
2019-05-13T16:33:55.033Z,16.700001
2019-05-13T16:38:57.676Z,16.5
2019-05-13T16:43:59.632Z,16.200001
2019-05-13T16:49:02.105Z,16
2019-05-13T16:54:03.855Z,15.7
2019-05-13T16:59:06.214Z,15.6
2019-05-13T17:04:08.529Z,15.4
2019-05-13T17:09:11.500Z,15.2
2019-05-13T17:14:13.188Z,15.1
2019-05-13T17:19:15.370Z,14.9
2019-05-13T17:24:17.713Z,14.8
2019-05-13T17:29:21.127Z,14.7
2019-05-13T17:34:22.356Z,14.5
2019-05-13T17:39:24.769Z,14.5
2019-05-13T17:44:26.745Z,14.3
2019-05-13T17:54:31.971Z,14.1
2019-05-13T17:59:33.661Z,14.1
2019-05-13T18:04:35.983Z,14
2019-05-13T18:09:38.974Z,13.9
2019-05-13T18:14:41.168Z,13.7
2019-05-13T18:19:43.225Z,13.6
2019-05-13T18:24:45.311Z,13.5
2019-05-13T18:29:47.745Z,13.4
2019-05-13T18:34:49.811Z,13.1
2019-05-13T18:39:52.234Z,13
2019-05-13T18:44:54.322Z,12.9
2019-05-13T18:49:56.933Z,12.7
2019-05-13T18:54:58.970Z,12.6
2019-05-13T19:00:03.509Z,12.5
2019-05-13T19:05:03.465Z,12.2
2019-05-13T19:10:05.912Z,12.2
2019-05-13T19:15:08.127Z,12
2019-05-13T19:20:11.685Z,11.9
2019-05-13T19:25:12.701Z,11.7
2019-05-13T19:30:14.959Z,11.6
2019-05-13T19:35:17.276Z,11.4
2019-05-13T19:40:21.892Z,11.4
2019-05-13T19:45:21.971Z,11.3
2019-05-13T19:50:24.159Z,11.2
2019-05-13T19:55:26.413Z,11.1
2019-05-13T20:00:28.720Z,11
2019-05-13T20:05:31.765Z,10.9
2019-05-13T20:10:33.268Z,10.9
2019-05-13T20:15:35.645Z,10.8
2019-05-13T20:20:37.968Z,10.7
2019-05-13T20:25:41.765Z,10.6
2019-05-13T20:30:45.428Z,10.6
2019-05-13T20:35:45.094Z,10.5
2019-05-13T20:40:47.009Z,10.5
2019-05-13T20:45:51.671Z,10.4
2019-05-13T20:50:51.986Z,10.3
2019-05-13T20:55:54.025Z,10.3
2019-05-13T21:00:56.337Z,10.2
2019-05-13T21:05:58.511Z,10.1
2019-05-13T21:11:02.233Z,10.1
2019-05-13T21:16:03.117Z,10
2019-05-13T21:21:05.372Z,10
2019-05-13T21:26:07.814Z,9.9
2019-05-13T21:31:11.363Z,9.8
2019-05-13T21:36:12.405Z,9.8
2019-05-13T21:41:14.665Z,9.8
2019-05-13T21:46:16.879Z,9.6
2019-05-13T21:51:19.182Z,9.5
2019-05-13T21:56:23.241Z,9.4
2019-05-13T22:01:23.747Z,9.4
2019-05-13T22:06:26.059Z,9.3
2019-05-13T22:11:28.421Z,9.2
2019-05-13T22:16:31.914Z,9.1
2019-05-13T22:21:32.959Z,9
2019-05-13T22:26:35.193Z,8.9
2019-05-13T22:31:37.548Z,8.9
2019-05-13T22:36:39.872Z,8.8
2019-05-13T22:41:42.321Z,8.7
2019-05-13T22:46:44.414Z,8.7
2019-05-13T22:51:46.659Z,8.6
2019-05-13T22:56:48.952Z,8.5
2019-05-13T23:01:52.376Z,8.5
2019-05-13T23:06:53.610Z,8.4
2019-05-13T23:11:55.859Z,8.3
2019-05-13T23:16:58.198Z,8.3
2019-05-13T23:22:01.550Z,8.2
2019-05-13T23:27:02.939Z,8.1
2019-05-13T23:32:05.422Z,8
2019-05-13T23:37:07.391Z,8
2019-05-13T23:42:11.889Z,7.9
2019-05-13T23:47:11.993Z,7.9
2019-05-13T23:52:14.241Z,7.8
2019-05-13T23:57:16.834Z,7.7
